Columbiaville, Michigan
Current Conditions -  °F | °C
As of 10:34 AM on Thursday 23 Oct 2014 (Local Time) from KD95 Reporting Station
Overcast Overcast  
Wind Chill: 39°   Ceiling: 300
Heat Index: 39°   Visibility: 7mi
Dew Point: 38°   Wind: 3mph
Humidity: 98%   Direction: 330°NNW
Pressure: 30.25"   Gusts: NA
Location:  43.16°N, 83.41°W
Report Text: KD95 231434Z AUTO 33003KT 7SM OVC003 04/04 A3025 RMK AO2 T00380035
Loading
Personal Weather Stations






























Interactive Weather Map
Tropical Storm Tracking
New forecast layout! Learn more

10-Day Weather Forecast

Advertisements
Track Severe Weather on mobile